sensor_id;sensor_type;location;lat;lon;timestamp;P1;durP1;ratioP1;P2;durP2;ratioP2
68089;SDS011;54880;50.986;6.990;2023-02-28T00:00:38;6.50;;;2.27;;
68089;SDS011;54880;50.986;6.990;2023-02-28T00:03:04;7.80;;;2.27;;
68089;SDS011;54880;50.986;6.990;2023-02-28T00:05:29;7.30;;;2.50;;
68089;SDS011;54880;50.986;6.990;2023-02-28T00:07:54;8.07;;;2.40;;
68089;SDS011;54880;50.986;6.990;2023-02-28T00:10:21;6.53;;;2.27;;
68089;SDS011;54880;50.986;6.990;2023-02-28T00:12:48;8.13;;;2.17;;
68089;SDS011;54880;50.986;6.990;2023-02-28T00:15:13;7.57;;;2.53;;
68089;SDS011;54880;50.986;6.990;2023-02-28T00:17:39;5.53;;;2.03;;
68089;SDS011;54880;50.986;6.990;2023-02-28T00:20:04;6.10;;;2.00;;
68089;SDS011;54880;50.986;6.990;2023-02-28T00:22:33;8.13;;;2.30;;
68089;SDS011;54880;50.986;6.990;2023-02-28T00:24:58;7.17;;;2.50;;
68089;SDS011;54880;50.986;6.990;2023-02-28T00:27:23;5.80;;;2.40;;
68089;SDS011;54880;50.986;6.990;2023-02-28T00:29:49;6.60;;;2.30;;
68089;SDS011;54880;50.986;6.990;2023-02-28T00:32:14;11.30;;;2.57;;
68089;SDS011;54880;50.986;6.990;2023-02-28T00:34:40;6.40;;;2.05;;
68089;SDS011;54880;50.986;6.990;2023-02-28T00:37:08;8.03;;;2.03;;
68089;SDS011;54880;50.986;6.990;2023-02-28T00:39:34;6.65;;;1.95;;
68089;SDS011;54880;50.986;6.990;2023-02-28T00:42:00;7.53;;;1.98;;
68089;SDS011;54880;50.986;6.990;2023-02-28T00:44:25;7.83;;;2.03;;
68089;SDS011;54880;50.986;6.990;2023-02-28T00:46:51;6.55;;;2.22;;
68089;SDS011;54880;50.986;6.990;2023-02-28T00:49:19;6.90;;;2.10;;
68089;SDS011;54880;50.986;6.990;2023-02-28T00:51:44;7.17;;;1.80;;
68089;SDS011;54880;50.986;6.990;2023-02-28T00:54:09;6.90;;;2.27;;
68089;SDS011;54880;50.986;6.990;2023-02-28T00:56:34;6.60;;;2.20;;
68089;SDS011;54880;50.986;6.990;2023-02-28T00:58:59;9.33;;;2.63;;
68089;SDS011;54880;50.986;6.990;2023-02-28T01:01:25;7.87;;;2.00;;
68089;SDS011;54880;50.986;6.990;2023-02-28T01:03:50;9.43;;;2.30;;
68089;SDS011;54880;50.986;6.990;2023-02-28T01:06:15;7.20;;;2.27;;
68089;SDS011;54880;50.986;6.990;2023-02-28T01:08:40;8.03;;;2.07;;
68089;SDS011;54880;50.986;6.990;2023-02-28T01:11:12;7.50;;;2.47;;
68089;SDS011;54880;50.986;6.990;2023-02-28T01:13:39;8.40;;;2.50;;
68089;SDS011;54880;50.986;6.990;2023-02-28T01:16:04;5.73;;;1.90;;
68089;SDS011;54880;50.986;6.990;2023-02-28T01:18:29;7.32;;;2.28;;
68089;SDS011;54880;50.986;6.990;2023-02-28T01:20:55;6.80;;;1.90;;
68089;SDS011;54880;50.986;6.990;2023-02-28T01:23:21;8.23;;;2.43;;
68089;SDS011;54880;50.986;6.990;2023-02-28T01:25:48;7.05;;;2.22;;
68089;SDS011;54880;50.986;6.990;2023-02-28T01:28:13;8.43;;;2.30;;
68089;SDS011;54880;50.986;6.990;2023-02-28T01:30:39;6.20;;;2.00;;
68089;SDS011;54880;50.986;6.990;2023-02-28T01:33:05;6.65;;;1.80;;
68089;SDS011;54880;50.986;6.990;2023-02-28T01:35:34;7.80;;;2.03;;
68089;SDS011;54880;50.986;6.990;2023-02-28T01:38:00;6.38;;;2.20;;
68089;SDS011;54880;50.986;6.990;2023-02-28T01:40:25;11.37;;;2.50;;
68089;SDS011;54880;50.986;6.990;2023-02-28T01:42:50;8.90;;;2.43;;
68089;SDS011;54880;50.986;6.990;2023-02-28T01:47:45;6.88;;;2.15;;
68089;SDS011;54880;50.986;6.990;2023-02-28T01:50:12;6.63;;;2.03;;
68089;SDS011;54880;50.986;6.990;2023-02-28T01:52:38;6.80;;;2.28;;
68089;SDS011;54880;50.986;6.990;2023-02-28T01:55:04;6.37;;;2.20;;
68089;SDS011;54880;50.986;6.990;2023-02-28T01:57:32;7.22;;;2.17;;
68089;SDS011;54880;50.986;6.990;2023-02-28T02:00:12;6.55;;;1.90;;
68089;SDS011;54880;50.986;6.990;2023-02-28T02:02:40;6.63;;;2.20;;
68089;SDS011;54880;50.986;6.990;2023-02-28T02:05:09;8.50;;;2.50;;
68089;SDS011;54880;50.986;6.990;2023-02-28T02:07:36;6.78;;;2.22;;
68089;SDS011;54880;50.986;6.990;2023-02-28T02:10:06;7.40;;;2.30;;
68089;SDS011;54880;50.986;6.990;2023-02-28T02:12:45;7.43;;;2.25;;
68089;SDS011;54880;50.986;6.990;2023-02-28T02:15:16;7.97;;;2.73;;
68089;SDS011;54880;50.986;6.990;2023-02-28T02:17:53;6.35;;;2.08;;
68089;SDS011;54880;50.986;6.990;2023-02-28T02:20:32;8.60;;;2.30;;
68089;SDS011;54880;50.986;6.990;2023-02-28T02:25:45;9.52;;;2.20;;
68089;SDS011;54880;50.986;6.990;2023-02-28T02:28:35;8.67;;;2.17;;
68089;SDS011;54880;50.986;6.990;2023-02-28T02:33:36;5.57;;;1.83;;
68089;SDS011;54880;50.986;6.990;2023-02-28T02:36:09;10.45;;;2.40;;
68089;SDS011;54880;50.986;6.990;2023-02-28T02:38:40;6.47;;;1.83;;
68089;SDS011;54880;50.986;6.990;2023-02-28T02:41:10;5.97;;;1.80;;
68089;SDS011;54880;50.986;6.990;2023-02-28T02:46:23;8.75;;;2.40;;
68089;SDS011;54880;50.986;6.990;2023-02-28T02:48:50;6.77;;;2.33;;
68089;SDS011;54880;50.986;6.990;2023-02-28T02:51:19;6.03;;;1.90;;
68089;SDS011;54880;50.986;6.990;2023-02-28T02:53:53;5.75;;;2.10;;
68089;SDS011;54880;50.986;6.990;2023-02-28T02:56:21;8.07;;;1.77;;
68089;SDS011;54880;50.986;6.990;2023-02-28T02:58:48;6.13;;;2.40;;
68089;SDS011;54880;50.986;6.990;2023-02-28T03:01:16;7.10;;;2.40;;
68089;SDS011;54880;50.986;6.990;2023-02-28T03:03:42;6.88;;;2.00;;
68089;SDS011;54880;50.986;6.990;2023-02-28T03:06:08;6.25;;;2.13;;
68089;SDS011;54880;50.986;6.990;2023-02-28T03:08:34;7.20;;;2.77;;
68089;SDS011;54880;50.986;6.990;2023-02-28T03:11:00;6.20;;;2.10;;
68089;SDS011;54880;50.986;6.990;2023-02-28T03:16:01;9.35;;;2.28;;
68089;SDS011;54880;50.986;6.990;2023-02-28T03:21:06;6.40;;;1.95;;
68089;SDS011;54880;50.986;6.990;2023-02-28T03:26:22;6.82;;;2.10;;
68089;SDS011;54880;50.986;6.990;2023-02-28T03:29:08;7.28;;;2.22;;
68089;SDS011;54880;50.986;6.990;2023-02-28T03:34:31;5.30;;;1.70;;
68089;SDS011;54880;50.986;6.990;2023-02-28T03:37:02;6.22;;;2.08;;
68089;SDS011;54880;50.986;6.990;2023-02-28T03:39:37;6.03;;;2.20;;
68089;SDS011;54880;50.986;6.990;2023-02-28T03:42:15;7.97;;;2.43;;
68089;SDS011;54880;50.986;6.990;2023-02-28T03:44:45;6.15;;;2.03;;
68089;SDS011;54880;50.986;6.990;2023-02-28T03:47:14;7.35;;;2.05;;
68089;SDS011;54880;50.986;6.990;2023-02-28T03:49:54;6.15;;;2.17;;
68089;SDS011;54880;50.986;6.990;2023-02-28T03:52:20;7.75;;;2.28;;
68089;SDS011;54880;50.986;6.990;2023-02-28T03:54:51;5.33;;;1.90;;
68089;SDS011;54880;50.986;6.990;2023-02-28T03:57:21;6.65;;;2.20;;
68089;SDS011;54880;50.986;6.990;2023-02-28T03:59:49;7.30;;;2.42;;
68089;SDS011;54880;50.986;6.990;2023-02-28T04:02:18;7.10;;;2.53;;
68089;SDS011;54880;50.986;6.990;2023-02-28T04:04:43;8.53;;;2.80;;
68089;SDS011;54880;50.986;6.990;2023-02-28T04:07:13;9.33;;;2.30;;
68089;SDS011;54880;50.986;6.990;2023-02-28T04:09:38;6.82;;;2.30;;
68089;SDS011;54880;50.986;6.990;2023-02-28T04:12:04;7.30;;;2.93;;
68089;SDS011;54880;50.986;6.990;2023-02-28T04:14:29;7.87;;;2.20;;
68089;SDS011;54880;50.986;6.990;2023-02-28T04:16:55;6.60;;;2.43;;
68089;SDS011;54880;50.986;6.990;2023-02-28T04:19:20;6.23;;;2.50;;
68089;SDS011;54880;50.986;6.990;2023-02-28T04:21:49;7.57;;;2.43;;
68089;SDS011;54880;50.986;6.990;2023-02-28T04:24:16;7.47;;;2.75;;
68089;SDS011;54880;50.986;6.990;2023-02-28T04:26:44;6.78;;;2.38;;
68089;SDS011;54880;50.986;6.990;2023-02-28T04:29:10;6.80;;;2.73;;
68089;SDS011;54880;50.986;6.990;2023-02-28T04:31:35;7.60;;;2.60;;
68089;SDS011;54880;50.986;6.990;2023-02-28T04:34:01;7.10;;;2.70;;
68089;SDS011;54880;50.986;6.990;2023-02-28T04:36:26;6.93;;;2.87;;
68089;SDS011;54880;50.986;6.990;2023-02-28T04:38:51;6.60;;;2.50;;
68089;SDS011;54880;50.986;6.990;2023-02-28T04:41:17;6.70;;;2.23;;
68089;SDS011;54880;50.986;6.990;2023-02-28T04:43:42;8.97;;;2.80;;
68089;SDS011;54880;50.986;6.990;2023-02-28T04:46:07;7.70;;;2.60;;
68089;SDS011;54880;50.986;6.990;2023-02-28T04:48:34;8.05;;;2.72;;
68089;SDS011;54880;50.986;6.990;2023-02-28T04:51:06;7.00;;;2.50;;
68089;SDS011;54880;50.986;6.990;2023-02-28T04:53:31;7.80;;;2.75;;
68089;SDS011;54880;50.986;6.990;2023-02-28T04:55:57;6.90;;;2.70;;
68089;SDS011;54880;50.986;6.990;2023-02-28T04:58:22;8.57;;;2.60;;
68089;SDS011;54880;50.986;6.990;2023-02-28T05:00:51;7.32;;;2.60;;
68089;SDS011;54880;50.986;6.990;2023-02-28T05:03:16;11.93;;;2.67;;
68089;SDS011;54880;50.986;6.990;2023-02-28T05:05:41;5.83;;;2.40;;
68089;SDS011;54880;50.986;6.990;2023-02-28T05:08:06;9.47;;;2.90;;
68089;SDS011;54880;50.986;6.990;2023-02-28T05:10:31;7.80;;;2.83;;
68089;SDS011;54880;50.986;6.990;2023-02-28T05:12:57;8.17;;;3.10;;
68089;SDS011;54880;50.986;6.990;2023-02-28T05:15:22;8.57;;;3.20;;
68089;SDS011;54880;50.986;6.990;2023-02-28T05:17:47;9.33;;;2.93;;
68089;SDS011;54880;50.986;6.990;2023-02-28T05:20:13;10.10;;;2.30;;
68089;SDS011;54880;50.986;6.990;2023-02-28T05:22:39;6.90;;;2.77;;
68089;SDS011;54880;50.986;6.990;2023-02-28T05:25:04;7.13;;;2.80;;
68089;SDS011;54880;50.986;6.990;2023-02-28T05:27:30;7.20;;;2.88;;
68089;SDS011;54880;50.986;6.990;2023-02-28T05:29:55;8.07;;;3.00;;
68089;SDS011;54880;50.986;6.990;2023-02-28T05:32:21;8.73;;;2.60;;
68089;SDS011;54880;50.986;6.990;2023-02-28T05:34:47;6.65;;;2.60;;
68089;SDS011;54880;50.986;6.990;2023-02-28T05:37:12;6.67;;;2.67;;
68089;SDS011;54880;50.986;6.990;2023-02-28T05:39:38;7.53;;;2.67;;
68089;SDS011;54880;50.986;6.990;2023-02-28T05:42:03;8.43;;;2.53;;
68089;SDS011;54880;50.986;6.990;2023-02-28T05:44:29;6.33;;;2.37;;
68089;SDS011;54880;50.986;6.990;2023-02-28T05:46:55;11.40;;;2.60;;
68089;SDS011;54880;50.986;6.990;2023-02-28T05:49:20;6.00;;;2.20;;
68089;SDS011;54880;50.986;6.990;2023-02-28T05:51:46;6.77;;;2.47;;
68089;SDS011;54880;50.986;6.990;2023-02-28T05:54:11;6.60;;;2.40;;
68089;SDS011;54880;50.986;6.990;2023-02-28T05:56:37;7.77;;;2.30;;
68089;SDS011;54880;50.986;6.990;2023-02-28T05:59:06;7.55;;;2.45;;
68089;SDS011;54880;50.986;6.990;2023-02-28T06:01:41;8.93;;;2.50;;
68089;SDS011;54880;50.986;6.990;2023-02-28T06:04:08;7.05;;;2.60;;
68089;SDS011;54880;50.986;6.990;2023-02-28T06:06:33;7.47;;;2.65;;
68089;SDS011;54880;50.986;6.990;2023-02-28T06:08:59;8.10;;;2.60;;
68089;SDS011;54880;50.986;6.990;2023-02-28T06:11:26;8.80;;;2.78;;
68089;SDS011;54880;50.986;6.990;2023-02-28T06:13:58;7.03;;;2.80;;
68089;SDS011;54880;50.986;6.990;2023-02-28T06:16:25;5.72;;;2.58;;
68089;SDS011;54880;50.986;6.990;2023-02-28T06:18:50;6.63;;;2.20;;
68089;SDS011;54880;50.986;6.990;2023-02-28T06:21:16;6.80;;;2.73;;
68089;SDS011;54880;50.986;6.990;2023-02-28T06:23:41;6.73;;;2.43;;
68089;SDS011;54880;50.986;6.990;2023-02-28T06:26:06;7.47;;;2.40;;
68089;SDS011;54880;50.986;6.990;2023-02-28T06:28:31;7.10;;;2.53;;
68089;SDS011;54880;50.986;6.990;2023-02-28T06:30:57;6.73;;;2.50;;
68089;SDS011;54880;50.986;6.990;2023-02-28T06:33:22;6.03;;;2.30;;
68089;SDS011;54880;50.986;6.990;2023-02-28T06:35:49;7.20;;;2.80;;
68089;SDS011;54880;50.986;6.990;2023-02-28T06:38:15;8.38;;;2.70;;
68089;SDS011;54880;50.986;6.990;2023-02-28T06:40:40;6.73;;;2.60;;
68089;SDS011;54880;50.986;6.990;2023-02-28T06:43:05;9.77;;;2.77;;
68089;SDS011;54880;50.986;6.990;2023-02-28T06:45:31;6.87;;;2.37;;
68089;SDS011;54880;50.986;6.990;2023-02-28T06:47:56;7.13;;;2.30;;
68089;SDS011;54880;50.986;6.990;2023-02-28T06:50:23;6.30;;;2.10;;
68089;SDS011;54880;50.986;6.990;2023-02-28T06:52:48;6.73;;;2.30;;
68089;SDS011;54880;50.986;6.990;2023-02-28T06:55:18;6.72;;;2.50;;
68089;SDS011;54880;50.986;6.990;2023-02-28T06:57:44;7.53;;;2.60;;
68089;SDS011;54880;50.986;6.990;2023-02-28T07:00:09;8.17;;;2.50;;
68089;SDS011;54880;50.986;6.990;2023-02-28T07:02:35;6.25;;;2.47;;
68089;SDS011;54880;50.986;6.990;2023-02-28T07:05:00;6.50;;;2.67;;
68089;SDS011;54880;50.986;6.990;2023-02-28T07:07:26;6.87;;;2.77;;
68089;SDS011;54880;50.986;6.990;2023-02-28T07:09:51;6.25;;;2.53;;
68089;SDS011;54880;50.986;6.990;2023-02-28T07:12:17;8.75;;;2.67;;
68089;SDS011;54880;50.986;6.990;2023-02-28T07:14:42;8.77;;;2.50;;
68089;SDS011;54880;50.986;6.990;2023-02-28T07:17:09;5.60;;;2.33;;
68089;SDS011;54880;50.986;6.990;2023-02-28T07:19:35;6.75;;;2.20;;
68089;SDS011;54880;50.986;6.990;2023-02-28T07:22:01;7.20;;;2.27;;
68089;SDS011;54880;50.986;6.990;2023-02-28T07:24:27;6.40;;;2.35;;
68089;SDS011;54880;50.986;6.990;2023-02-28T07:26:54;7.53;;;2.88;;
68089;SDS011;54880;50.986;6.990;2023-02-28T07:29:20;6.23;;;2.37;;
68089;SDS011;54880;50.986;6.990;2023-02-28T07:31:45;6.63;;;2.33;;
68089;SDS011;54880;50.986;6.990;2023-02-28T07:34:11;6.40;;;2.22;;
68089;SDS011;54880;50.986;6.990;2023-02-28T07:36:36;7.47;;;3.07;;
68089;SDS011;54880;50.986;6.990;2023-02-28T07:39:02;5.30;;;2.00;;
68089;SDS011;54880;50.986;6.990;2023-02-28T07:41:27;6.90;;;2.73;;
68089;SDS011;54880;50.986;6.990;2023-02-28T07:43:54;6.30;;;2.20;;
68089;SDS011;54880;50.986;6.990;2023-02-28T07:46:24;6.20;;;2.40;;
68089;SDS011;54880;50.986;6.990;2023-02-28T07:48:50;5.80;;;2.23;;
68089;SDS011;54880;50.986;6.990;2023-02-28T07:51:15;6.70;;;2.63;;
68089;SDS011;54880;50.986;6.990;2023-02-28T07:53:40;6.93;;;2.40;;
68089;SDS011;54880;50.986;6.990;2023-02-28T07:56:05;7.20;;;2.50;;
68089;SDS011;54880;50.986;6.990;2023-02-28T07:58:31;7.10;;;2.67;;
68089;SDS011;54880;50.986;6.990;2023-02-28T08:00:56;7.10;;;2.20;;
68089;SDS011;54880;50.986;6.990;2023-02-28T08:03:22;6.67;;;2.30;;
68089;SDS011;54880;50.986;6.990;2023-02-28T08:05:48;5.45;;;2.20;;
68089;SDS011;54880;50.986;6.990;2023-02-28T08:08:14;6.73;;;2.10;;
68089;SDS011;54880;50.986;6.990;2023-02-28T08:10:40;7.75;;;2.33;;
68089;SDS011;54880;50.986;6.990;2023-02-28T08:13:05;6.67;;;2.17;;
68089;SDS011;54880;50.986;6.990;2023-02-28T08:15:30;8.37;;;2.20;;
68089;SDS011;54880;50.986;6.990;2023-02-28T08:17:56;6.00;;;2.10;;
68089;SDS011;54880;50.986;6.990;2023-02-28T08:20:22;7.82;;;2.45;;
68089;SDS011;54880;50.986;6.990;2023-02-28T08:22:47;8.53;;;2.70;;
68089;SDS011;54880;50.986;6.990;2023-02-28T08:25:12;6.50;;;2.30;;
68089;SDS011;54880;50.986;6.990;2023-02-28T08:27:38;6.47;;;2.30;;
68089;SDS011;54880;50.986;6.990;2023-02-28T08:30:03;8.20;;;1.80;;
68089;SDS011;54880;50.986;6.990;2023-02-28T08:32:29;5.95;;;2.35;;
68089;SDS011;54880;50.986;6.990;2023-02-28T08:34:54;6.00;;;2.40;;
68089;SDS011;54880;50.986;6.990;2023-02-28T08:37:19;6.13;;;1.97;;
68089;SDS011;54880;50.986;6.990;2023-02-28T08:39:45;6.27;;;2.30;;
68089;SDS011;54880;50.986;6.990;2023-02-28T08:42:10;4.93;;;1.30;;
68089;SDS011;54880;50.986;6.990;2023-02-28T08:44:35;6.20;;;1.80;;
68089;SDS011;54880;50.986;6.990;2023-02-28T08:47:01;5.20;;;1.90;;
68089;SDS011;54880;50.986;6.990;2023-02-28T08:49:26;5.47;;;1.70;;
68089;SDS011;54880;50.986;6.990;2023-02-28T08:51:51;7.53;;;1.90;;
68089;SDS011;54880;50.986;6.990;2023-02-28T08:54:17;5.20;;;1.85;;
68089;SDS011;54880;50.986;6.990;2023-02-28T08:56:45;6.53;;;2.00;;
68089;SDS011;54880;50.986;6.990;2023-02-28T08:59:10;5.47;;;2.05;;
68089;SDS011;54880;50.986;6.990;2023-02-28T09:01:35;4.93;;;1.70;;
68089;SDS011;54880;50.986;6.990;2023-02-28T09:04:01;6.53;;;2.25;;
68089;SDS011;54880;50.986;6.990;2023-02-28T09:06:27;5.50;;;1.80;;
68089;SDS011;54880;50.986;6.990;2023-02-28T09:08:53;8.38;;;1.95;;
68089;SDS011;54880;50.986;6.990;2023-02-28T09:11:19;6.45;;;2.10;;
68089;SDS011;54880;50.986;6.990;2023-02-28T09:13:44;6.03;;;1.98;;
68089;SDS011;54880;50.986;6.990;2023-02-28T09:16:11;5.10;;;1.70;;
68089;SDS011;54880;50.986;6.990;2023-02-28T09:18:36;6.05;;;2.10;;
68089;SDS011;54880;50.986;6.990;2023-02-28T09:21:06;6.47;;;2.08;;
68089;SDS011;54880;50.986;6.990;2023-02-28T09:23:31;5.53;;;1.77;;
68089;SDS011;54880;50.986;6.990;2023-02-28T09:25:57;7.93;;;2.03;;
68089;SDS011;54880;50.986;6.990;2023-02-28T09:28:22;5.80;;;1.80;;
68089;SDS011;54880;50.986;6.990;2023-02-28T09:30:49;7.28;;;2.92;;
68089;SDS011;54880;50.986;6.990;2023-02-28T09:33:15;5.68;;;2.03;;
68089;SDS011;54880;50.986;6.990;2023-02-28T09:35:40;5.83;;;1.77;;
68089;SDS011;54880;50.986;6.990;2023-02-28T09:38:06;5.43;;;1.83;;
68089;SDS011;54880;50.986;6.990;2023-02-28T09:40:34;5.07;;;1.70;;
68089;SDS011;54880;50.986;6.990;2023-02-28T09:43:01;4.93;;;1.58;;
68089;SDS011;54880;50.986;6.990;2023-02-28T09:47:52;4.90;;;1.40;;
68089;SDS011;54880;50.986;6.990;2023-02-28T09:52:54;5.78;;;1.80;;
68089;SDS011;54880;50.986;6.990;2023-02-28T09:55:22;5.70;;;1.65;;
68089;SDS011;54880;50.986;6.990;2023-02-28T09:57:50;7.65;;;2.00;;
68089;SDS011;54880;50.986;6.990;2023-02-28T10:00:20;5.33;;;1.70;;
68089;SDS011;54880;50.986;6.990;2023-02-28T10:05:13;6.33;;;1.90;;
68089;SDS011;54880;50.986;6.990;2023-02-28T10:10:07;6.20;;;1.97;;
68089;SDS011;54880;50.986;6.990;2023-02-28T10:12:40;5.28;;;2.00;;
68089;SDS011;54880;50.986;6.990;2023-02-28T10:15:08;5.00;;;1.65;;
68089;SDS011;54880;50.986;6.990;2023-02-28T10:17:39;5.60;;;1.83;;
68089;SDS011;54880;50.986;6.990;2023-02-28T10:20:17;7.90;;;1.80;;
68089;SDS011;54880;50.986;6.990;2023-02-28T10:23:44;7.95;;;2.10;;
68089;SDS011;54880;50.986;6.990;2023-02-28T10:25:39;4.93;;;1.65;;
68089;SDS011;54880;50.986;6.990;2023-02-28T10:30:32;4.97;;;1.60;;
68089;SDS011;54880;50.986;6.990;2023-02-28T10:32:58;6.63;;;2.03;;
68089;SDS011;54880;50.986;6.990;2023-02-28T10:35:26;4.30;;;1.37;;
68089;SDS011;54880;50.986;6.990;2023-02-28T10:37:55;6.75;;;1.95;;
68089;SDS011;54880;50.986;6.990;2023-02-28T10:43:11;6.60;;;1.97;;
68089;SDS011;54880;50.986;6.990;2023-02-28T10:45:53;5.27;;;1.90;;
68089;SDS011;54880;50.986;6.990;2023-02-28T10:55:37;6.00;;;1.80;;
68089;SDS011;54880;50.986;6.990;2023-02-28T10:58:02;5.47;;;1.83;;
68089;SDS011;54880;50.986;6.990;2023-02-28T11:00:32;6.90;;;2.03;;
68089;SDS011;54880;50.986;6.990;2023-02-28T11:02:58;5.25;;;1.75;;
68089;SDS011;54880;50.986;6.990;2023-02-28T11:07:52;5.73;;;2.17;;
68089;SDS011;54880;50.986;6.990;2023-02-28T11:10:19;5.53;;;1.90;;
68089;SDS011;54880;50.986;6.990;2023-02-28T11:12:45;5.95;;;2.22;;
68089;SDS011;54880;50.986;6.990;2023-02-28T11:17:52;6.40;;;1.90;;
68089;SDS011;54880;50.986;6.990;2023-02-28T11:20:19;5.03;;;1.77;;
68089;SDS011;54880;50.986;6.990;2023-02-28T11:22:46;7.38;;;2.13;;
68089;SDS011;54880;50.986;6.990;2023-02-28T11:25:30;5.75;;;2.10;;
68089;SDS011;54880;50.986;6.990;2023-02-28T11:28:00;7.10;;;2.00;;
68089;SDS011;54880;50.986;6.990;2023-02-28T11:32:52;6.93;;;2.43;;
68089;SDS011;54880;50.986;6.990;2023-02-28T11:35:20;5.57;;;2.03;;
68089;SDS011;54880;50.986;6.990;2023-02-28T11:37:47;6.32;;;2.30;;
68089;SDS011;54880;50.986;6.990;2023-02-28T11:40:18;5.50;;;2.00;;
68089;SDS011;54880;50.986;6.990;2023-02-28T11:42:56;6.00;;;2.15;;
68089;SDS011;54880;50.986;6.990;2023-02-28T11:47:51;5.83;;;2.00;;
68089;SDS011;54880;50.986;6.990;2023-02-28T11:52:54;7.32;;;2.40;;
68089;SDS011;54880;50.986;6.990;2023-02-28T11:55:35;6.05;;;2.08;;
68089;SDS011;54880;50.986;6.990;2023-02-28T11:58:16;7.78;;;2.40;;
68089;SDS011;54880;50.986;6.990;2023-02-28T12:03:19;7.57;;;2.60;;
68089;SDS011;54880;50.986;6.990;2023-02-28T12:05:54;6.38;;;2.60;;
68089;SDS011;54880;50.986;6.990;2023-02-28T12:08:26;6.43;;;2.47;;
68089;SDS011;54880;50.986;6.990;2023-02-28T12:21:31;5.93;;;2.50;;
68089;SDS011;54880;50.986;6.990;2023-02-28T12:24:10;6.75;;;2.38;;
68089;SDS011;54880;50.986;6.990;2023-02-28T12:26:41;6.47;;;2.65;;
68089;SDS011;54880;50.986;6.990;2023-02-28T12:29:16;6.70;;;2.70;;
68089;SDS011;54880;50.986;6.990;2023-02-28T12:31:45;6.50;;;2.50;;
68089;SDS011;54880;50.986;6.990;2023-02-28T12:34:13;7.70;;;2.70;;
68089;SDS011;54880;50.986;6.990;2023-02-28T12:36:41;6.75;;;2.10;;
68089;SDS011;54880;50.986;6.990;2023-02-28T12:39:16;6.10;;;2.42;;
68089;SDS011;54880;50.986;6.990;2023-02-28T12:41:51;7.95;;;2.65;;
68089;SDS011;54880;50.986;6.990;2023-02-28T12:44:28;6.70;;;2.67;;
68089;SDS011;54880;50.986;6.990;2023-02-28T12:46:58;8.07;;;2.90;;
68089;SDS011;54880;50.986;6.990;2023-02-28T12:49:26;9.85;;;2.83;;
68089;SDS011;54880;50.986;6.990;2023-02-28T12:51:55;6.80;;;2.20;;
68089;SDS011;54880;50.986;6.990;2023-02-28T12:56:54;7.83;;;2.80;;
68089;SDS011;54880;50.986;6.990;2023-02-28T12:59:27;6.07;;;2.20;;
68089;SDS011;54880;50.986;6.990;2023-02-28T13:04:32;9.20;;;2.83;;
68089;SDS011;54880;50.986;6.990;2023-02-28T13:09:29;7.38;;;2.35;;
68089;SDS011;54880;50.986;6.990;2023-02-28T13:11:55;7.30;;;3.00;;
68089;SDS011;54880;50.986;6.990;2023-02-28T13:19:37;6.50;;;2.43;;
68089;SDS011;54880;50.986;6.990;2023-02-28T13:22:03;9.32;;;3.20;;
68089;SDS011;54880;50.986;6.990;2023-02-28T13:29:41;8.43;;;3.00;;
68089;SDS011;54880;50.986;6.990;2023-02-28T13:39:46;7.10;;;2.70;;
68089;SDS011;54880;50.986;6.990;2023-02-28T13:42:32;6.88;;;2.53;;
68089;SDS011;54880;50.986;6.990;2023-02-28T13:47:28;5.90;;;2.22;;
68089;SDS011;54880;50.986;6.990;2023-02-28T13:50:13;9.23;;;2.87;;
68089;SDS011;54880;50.986;6.990;2023-02-28T13:52:42;7.20;;;2.90;;
68089;SDS011;54880;50.986;6.990;2023-02-28T13:57:57;7.80;;;2.60;;
68089;SDS011;54880;50.986;6.990;2023-02-28T14:00:43;6.50;;;2.70;;
68089;SDS011;54880;50.986;6.990;2023-02-28T14:03:21;6.43;;;2.40;;
68089;SDS011;54880;50.986;6.990;2023-02-28T14:06:07;7.38;;;2.70;;
68089;SDS011;54880;50.986;6.990;2023-02-28T14:08:33;6.03;;;2.60;;
68089;SDS011;54880;50.986;6.990;2023-02-28T14:11:03;6.93;;;2.67;;
68089;SDS011;54880;50.986;6.990;2023-02-28T14:16:02;7.05;;;2.58;;
68089;SDS011;54880;50.986;6.990;2023-02-28T14:18:30;7.33;;;2.90;;
68089;SDS011;54880;50.986;6.990;2023-02-28T14:21:01;8.05;;;3.10;;
68089;SDS011;54880;50.986;6.990;2023-02-28T14:23:34;8.82;;;2.83;;
68089;SDS011;54880;50.986;6.990;2023-02-28T14:26:14;8.55;;;2.60;;
68089;SDS011;54880;50.986;6.990;2023-02-28T14:28:46;6.95;;;2.50;;
68089;SDS011;54880;50.986;6.990;2023-02-28T14:31:17;7.70;;;2.70;;
68089;SDS011;54880;50.986;6.990;2023-02-28T14:34:03;8.35;;;3.10;;
68089;SDS011;54880;50.986;6.990;2023-02-28T14:36:35;5.82;;;2.60;;
68089;SDS011;54880;50.986;6.990;2023-02-28T14:39:04;7.43;;;2.88;;
68089;SDS011;54880;50.986;6.990;2023-02-28T14:41:34;6.88;;;2.97;;
68089;SDS011;54880;50.986;6.990;2023-02-28T14:44:02;7.37;;;2.97;;
68089;SDS011;54880;50.986;6.990;2023-02-28T14:46:37;8.38;;;3.08;;
68089;SDS011;54880;50.986;6.990;2023-02-28T14:49:06;6.43;;;2.75;;
68089;SDS011;54880;50.986;6.990;2023-02-28T14:51:32;7.93;;;2.97;;
68089;SDS011;54880;50.986;6.990;2023-02-28T14:53:59;6.73;;;3.10;;
68089;SDS011;54880;50.986;6.990;2023-02-28T14:56:26;7.78;;;3.30;;
68089;SDS011;54880;50.986;6.990;2023-02-28T14:58:53;7.35;;;2.80;;
68089;SDS011;54880;50.986;6.990;2023-02-28T15:01:20;8.43;;;2.60;;
68089;SDS011;54880;50.986;6.990;2023-02-28T15:03:46;7.15;;;3.20;;
68089;SDS011;54880;50.986;6.990;2023-02-28T15:06:13;7.37;;;2.90;;
68089;SDS011;54880;50.986;6.990;2023-02-28T15:08:38;8.15;;;3.10;;
68089;SDS011;54880;50.986;6.990;2023-02-28T15:11:05;6.70;;;3.07;;
68089;SDS011;54880;50.986;6.990;2023-02-28T15:13:48;8.18;;;3.03;;
68089;SDS011;54880;50.986;6.990;2023-02-28T15:16:18;6.18;;;2.90;;
68089;SDS011;54880;50.986;6.990;2023-02-28T15:18:48;6.20;;;3.00;;
68089;SDS011;54880;50.986;6.990;2023-02-28T15:21:24;6.63;;;2.90;;
68089;SDS011;54880;50.986;6.990;2023-02-28T15:26:36;7.72;;;2.83;;
68089;SDS011;54880;50.986;6.990;2023-02-28T15:29:06;6.53;;;2.85;;
68089;SDS011;54880;50.986;6.990;2023-02-28T15:31:33;7.15;;;3.20;;
68089;SDS011;54880;50.986;6.990;2023-02-28T15:34:03;6.37;;;2.60;;
68089;SDS011;54880;50.986;6.990;2023-02-28T15:36:30;6.80;;;2.90;;
68089;SDS011;54880;50.986;6.990;2023-02-28T15:38:58;6.47;;;2.60;;
68089;SDS011;54880;50.986;6.990;2023-02-28T15:41:27;6.17;;;2.80;;
68089;SDS011;54880;50.986;6.990;2023-02-28T15:46:37;6.38;;;2.92;;
68089;SDS011;54880;50.986;6.990;2023-02-28T15:49:03;7.23;;;3.00;;
68089;SDS011;54880;50.986;6.990;2023-02-28T15:51:36;7.80;;;2.93;;
68089;SDS011;54880;50.986;6.990;2023-02-28T15:54:04;6.70;;;3.10;;
68089;SDS011;54880;50.986;6.990;2023-02-28T15:56:31;8.57;;;3.50;;
68089;SDS011;54880;50.986;6.990;2023-02-28T15:58:58;7.60;;;3.40;;
68089;SDS011;54880;50.986;6.990;2023-02-28T16:01:24;7.07;;;3.10;;
68089;SDS011;54880;50.986;6.990;2023-02-28T16:03:51;6.38;;;2.70;;
68089;SDS011;54880;50.986;6.990;2023-02-28T16:06:37;6.22;;;2.80;;
68089;SDS011;54880;50.986;6.990;2023-02-28T16:09:05;6.45;;;2.60;;
68089;SDS011;54880;50.986;6.990;2023-02-28T16:11:33;6.43;;;2.80;;
68089;SDS011;54880;50.986;6.990;2023-02-28T16:13:58;6.03;;;2.77;;
68089;SDS011;54880;50.986;6.990;2023-02-28T16:16:24;7.03;;;2.73;;
68089;SDS011;54880;50.986;6.990;2023-02-28T16:18:51;6.22;;;2.75;;
68089;SDS011;54880;50.986;6.990;2023-02-28T16:21:16;5.77;;;2.30;;
68089;SDS011;54880;50.986;6.990;2023-02-28T16:23:41;6.43;;;2.80;;
68089;SDS011;54880;50.986;6.990;2023-02-28T16:26:06;6.72;;;2.42;;
68089;SDS011;54880;50.986;6.990;2023-02-28T16:28:33;5.63;;;2.58;;
68089;SDS011;54880;50.986;6.990;2023-02-28T16:31:00;6.88;;;2.70;;
68089;SDS011;54880;50.986;6.990;2023-02-28T16:33:28;6.47;;;2.90;;
68089;SDS011;54880;50.986;6.990;2023-02-28T16:35:53;7.40;;;2.80;;
68089;SDS011;54880;50.986;6.990;2023-02-28T16:38:18;7.93;;;2.70;;
68089;SDS011;54880;50.986;6.990;2023-02-28T16:40:44;6.95;;;2.50;;